Time;durP1;ratioP1;P1;durP2;ratioP2;P2;SDS_P1;SDS_P2;PMS_P1;PMS_P2;Temp;Humidity;BMP_temperature;BMP_pressure;BME280_temperature;BME280_humidity;BME280_pressure;Samples;Min_cycle;Max_cycle;Signal;HPM_P1;HPM_P2
2023/06/23 00:02:01;;;;;;;8.65;6.18;;;18.60;99.90;;;;;;6247054;23;20028;-65
2023/06/23 00:04:28;;;;;;;7.97;6.22;;;18.60;99.90;;;;;;6244363;23;20031;-66
2023/06/23 00:06:55;;;;;;;11.85;6.50;;;18.60;99.90;;;;;;6246619;23;20047;-66
2023/06/23 00:09:22;;;;;;;8.93;5.97;;;18.50;99.90;;;;;;6245000;23;20028;-66
2023/06/23 00:11:49;;;;;;;10.95;6.00;;;18.50;99.90;;;;;;6245951;23;20020;-66
2023/06/23 00:14:16;;;;;;;9.35;6.40;;;18.50;99.90;;;;;;6246963;23;20028;-66
2023/06/23 00:16:44;;;;;;;8.10;5.53;;;18.50;99.90;;;;;;6246360;23;20051;-66
2023/06/23 00:19:12;;;;;;;10.18;6.50;;;18.50;99.90;;;;;;6246230;23;20059;-67
2023/06/23 00:21:38;;;;;;;8.60;5.45;;;18.50;99.90;;;;;;6246765;23;20356;-66
2023/06/23 00:24:06;;;;;;;9.15;6.30;;;18.50;99.90;;;;;;6246835;23;20020;-66
2023/06/23 00:26:34;;;;;;;7.97;5.65;;;18.50;99.90;;;;;;6245898;23;20030;-66
2023/06/23 00:29:01;;;;;;;7.95;5.35;;;18.50;99.90;;;;;;6246587;23;20031;-67
2023/06/23 00:31:27;;;;;;;9.35;5.43;;;18.50;99.90;;;;;;6246634;23;20024;-66
2023/06/23 00:33:56;;;;;;;18.55;5.53;;;18.40;99.90;;;;;;6244236;23;20027;-65
2023/06/23 00:36:23;;;;;;;7.88;4.75;;;18.50;99.90;;;;;;6246631;23;20024;-66
2023/06/23 00:38:49;;;;;;;11.05;4.80;;;18.50;99.90;;;;;;6244469;23;20454;-66
2023/06/23 00:41:16;;;;;;;9.20;5.50;;;18.50;99.90;;;;;;6245574;23;20026;-66
2023/06/23 00:43:49;;;;;;;9.55;5.50;;;18.40;99.90;;;;;;6244643;23;20078;-66
2023/06/23 00:46:18;;;;;;;7.28;4.20;;;18.50;99.90;;;;;;6246584;23;20099;-66
2023/06/23 00:48:45;;;;;;;6.82;4.75;;;18.50;99.90;;;;;;6246523;23;20023;-65
2023/06/23 00:51:16;;;;;;;8.30;4.50;;;18.40;99.90;;;;;;6244488;23;20034;-66
2023/06/23 00:53:45;;;;;;;7.93;4.32;;;18.50;99.90;;;;;;6246040;22;20405;-67
2023/06/23 00:56:12;;;;;;;6.43;4.30;;;18.40;99.90;;;;;;6246463;23;20032;-65
2023/06/23 00:58:39;;;;;;;5.93;3.88;;;18.40;99.90;;;;;;6244513;23;20028;-66
2023/06/23 01:01:06;;;;;;;6.47;3.97;;;18.40;99.90;;;;;;6245709;23;20441;-66
2023/06/23 01:03:35;;;;;;;9.07;3.80;;;18.40;99.90;;;;;;6244733;23;20024;-67
2023/06/23 01:06:10;;;;;;;6.05;3.85;;;18.40;99.90;;;;;;6244502;23;20071;-66
2023/06/23 01:08:45;;;;;;;5.25;3.67;;;18.40;99.90;;;;;;6245811;23;20020;-66
2023/06/23 01:11:16;;;;;;;7.35;3.90;;;18.40;99.90;;;;;;6246504;22;20036;-66
2023/06/23 01:13:50;;;;;;;7.35;4.13;;;18.40;99.90;;;;;;6246433;23;20024;-67
2023/06/23 01:16:21;;;;;;;8.80;4.38;;;18.40;99.90;;;;;;6245617;23;20021;-66
2023/06/23 01:18:54;;;;;;;5.90;3.22;;;18.30;99.90;;;;;;6246346;23;20342;-66
2023/06/23 01:21:33;;;;;;;5.05;3.40;;;18.30;99.90;;;;;;6246009;23;20508;-66
2023/06/23 01:24:16;;;;;;;8.40;4.22;;;18.30;99.90;;;;;;6244425;23;20070;-66
2023/06/23 01:26:57;;;;;;;7.95;4.00;;;18.20;99.90;;;;;;6246178;23;20020;-65
2023/06/23 01:29:30;;;;;;;6.85;4.70;;;18.20;99.90;;;;;;6245380;23;20024;-65
2023/06/23 01:32:06;;;;;;;7.95;4.25;;;18.20;99.90;;;;;;6244215;23;20101;-66
2023/06/23 01:34:39;;;;;;;8.05;4.05;;;18.20;99.90;;;;;;6246185;23;20024;-65
2023/06/23 01:37:10;;;;;;;7.28;3.80;;;18.20;99.90;;;;;;6245241;23;20283;-65
2023/06/23 01:39:40;;;;;;;7.20;4.18;;;18.10;99.90;;;;;;6245187;23;20024;-66
2023/06/23 01:42:11;;;;;;;10.70;4.13;;;18.20;99.90;;;;;;6243935;23;20458;-65
2023/06/23 01:44:42;;;;;;;5.78;3.72;;;18.10;99.90;;;;;;6245045;23;20020;-65
2023/06/23 01:47:15;;;;;;;6.15;4.53;;;18.10;99.90;;;;;;6243960;23;20031;-65
2023/06/23 01:49:45;;;;;;;6.70;4.65;;;18.10;99.90;;;;;;6243408;23;20027;-66
2023/06/23 01:52:13;;;;;;;6.82;4.78;;;18.10;99.90;;;;;;6243959;23;20077;-66
2023/06/23 01:54:42;;;;;;;7.35;4.55;;;18.00;99.90;;;;;;6245913;23;20024;-65
2023/06/23 01:57:12;;;;;;;6.10;4.38;;;18.10;99.90;;;;;;6244699;23;20428;-66
2023/06/23 01:59:43;;;;;;;7.28;5.30;;;18.10;99.90;;;;;;6245895;23;20032;-66
2023/06/23 02:02:12;;;;;;;10.93;5.57;;;18.10;99.90;;;;;;6243835;23;20024;-66
2023/06/23 02:04:42;;;;;;;11.13;6.05;;;18.00;99.90;;;;;;6244792;23;20527;-66
2023/06/23 02:07:12;;;;;;;10.48;5.68;;;18.00;99.90;;;;;;6245899;23;20020;-66
2023/06/23 02:09:41;;;;;;;13.23;6.35;;;18.00;99.90;;;;;;6244466;23;20085;-66
2023/06/23 02:12:10;;;;;;;9.90;5.65;;;18.00;99.90;;;;;;6244992;23;20055;-66
2023/06/23 02:14:38;;;;;;;7.07;5.05;;;18.00;99.90;;;;;;6244057;23;20031;-67
2023/06/23 02:17:09;;;;;;;8.30;5.95;;;17.90;99.90;;;;;;6245568;23;20020;-67
2023/06/23 02:19:37;;;;;;;8.82;5.57;;;18.00;99.90;;;;;;6245132;23;20054;-67
2023/06/23 02:22:05;;;;;;;12.30;5.78;;;18.00;99.90;;;;;;6245534;23;20020;-66
2023/06/23 02:24:32;;;;;;;9.05;5.45;;;17.90;99.90;;;;;;6243852;23;20028;-66
2023/06/23 02:26:59;;;;;;;7.43;5.65;;;18.00;99.90;;;;;;6242916;23;20020;-66
2023/06/23 02:29:26;;;;;;;11.00;5.35;;;17.90;99.90;;;;;;6243766;23;20066;-66
2023/06/23 02:31:53;;;;;;;9.05;5.65;;;18.00;99.90;;;;;;6242932;23;20058;-66
2023/06/23 02:34:22;;;;;;;9.20;5.25;;;17.90;99.90;;;;;;6245707;23;20032;-67
2023/06/23 02:36:52;;;;;;;8.20;5.55;;;18.00;99.90;;;;;;6245499;23;20027;-67
2023/06/23 02:39:21;;;;;;;10.13;5.82;;;17.90;99.90;;;;;;6244304;23;20071;-66
2023/06/23 02:41:52;;;;;;;9.55;5.80;;;17.90;99.90;;;;;;6245391;23;20098;-67
2023/06/23 02:44:23;;;;;;;10.52;5.43;;;17.90;99.90;;;;;;6243864;23;20020;-66
2023/06/23 02:46:56;;;;;;;11.95;5.85;;;17.90;99.90;;;;;;6242907;23;20027;-66
2023/06/23 02:49:30;;;;;;;6.72;4.93;;;17.90;99.90;;;;;;6245637;22;20070;-67
2023/06/23 02:52:00;;;;;;;8.93;5.40;;;17.90;99.90;;;;;;6245329;23;20031;-66
2023/06/23 02:54:31;;;;;;;10.70;5.43;;;17.80;99.90;;;;;;6244718;23;20028;-65
2023/06/23 02:57:00;;;;;;;9.95;5.50;;;17.90;99.90;;;;;;6245417;23;20395;-66
2023/06/23 02:59:28;;;;;;;9.23;5.95;;;17.80;99.90;;;;;;6244895;23;20020;-65
2023/06/23 03:01:59;;;;;;;10.73;5.50;;;17.90;99.90;;;;;;6242560;23;20024;-65
2023/06/23 03:04:27;;;;;;;10.57;5.15;;;17.80;99.90;;;;;;6243504;23;20024;-66
2023/06/23 03:06:54;;;;;;;8.02;5.03;;;17.80;99.90;;;;;;6245050;23;20020;-65
2023/06/23 03:09:21;;;;;;;9.25;5.15;;;17.80;99.90;;;;;;6242374;23;20407;-67
2023/06/23 03:11:48;;;;;;;11.07;5.45;;;17.80;99.90;;;;;;6243133;23;20103;-66
2023/06/23 03:14:15;;;;;;;10.80;6.07;;;17.70;99.90;;;;;;6244473;23;20099;-66
2023/06/23 03:16:47;;;;;;;11.55;5.80;;;17.70;99.90;;;;;;6244970;22;20028;-66
2023/06/23 03:19:22;;;;;;;7.55;5.57;;;17.70;99.90;;;;;;6244630;23;20438;-67
2023/06/23 03:21:57;;;;;;;9.43;5.07;;;17.60;99.90;;;;;;6242523;23;20066;-66
2023/06/23 03:24:30;;;;;;;8.93;5.20;;;17.60;99.90;;;;;;6243387;23;20020;-65
2023/06/23 03:26:59;;;;;;;6.65;5.13;;;17.50;99.90;;;;;;6245109;23;20074;-66
2023/06/23 03:29:30;;;;;;;10.40;5.35;;;17.50;99.90;;;;;;6244585;23;20024;-67
2023/06/23 03:31:59;;;;;;;11.85;5.97;;;17.60;99.90;;;;;;6245021;23;20024;-67
2023/06/23 03:34:31;;;;;;;7.35;4.80;;;17.50;99.90;;;;;;6245504;23;20027;-67
2023/06/23 03:37:02;;;;;;;5.35;4.18;;;17.60;99.90;;;;;;6244637;23;20095;-66
2023/06/23 03:39:34;;;;;;;10.32;4.88;;;17.50;99.90;;;;;;6241458;23;20024;-66
2023/06/23 03:42:02;;;;;;;8.15;4.30;;;17.60;99.90;;;;;;6241658;23;20024;-65
2023/06/23 03:44:33;;;;;;;5.60;3.60;;;17.60;99.90;;;;;;6243268;23;20024;-66
2023/06/23 03:47:06;;;;;;;8.50;4.30;;;17.70;99.90;;;;;;6242370;23;20024;-65
2023/06/23 03:49:38;;;;;;;7.65;4.45;;;17.90;99.90;;;;;;6242521;23;20078;-65
2023/06/23 03:52:08;;;;;;;10.45;5.60;;;17.90;99.90;;;;;;6242271;23;20024;-65
2023/06/23 03:54:38;;;;;;;11.55;5.50;;;17.90;99.90;;;;;;6242097;23;20024;-65
2023/06/23 03:57:07;;;;;;;9.07;4.85;;;18.00;99.90;;;;;;6243581;23;20351;-65
2023/06/23 03:59:35;;;;;;;10.45;5.50;;;18.00;99.90;;;;;;6243331;23;20020;-66
2023/06/23 04:02:02;;;;;;;11.02;4.97;;;18.10;99.90;;;;;;6242022;23;20051;-65
2023/06/23 04:04:32;;;;;;;7.65;5.10;;;18.30;99.90;;;;;;6243212;23;20024;-65
2023/06/23 04:07:00;;;;;;;11.05;5.65;;;18.30;99.90;;;;;;6244082;23;20051;-65
2023/06/23 04:09:30;;;;;;;7.93;4.15;;;18.30;99.90;;;;;;6245897;23;20020;-65
2023/06/23 04:11:59;;;;;;;7.63;5.47;;;18.30;99.90;;;;;;6242861;23;20083;-65
2023/06/23 04:14:28;;;;;;;11.10;5.10;;;18.30;99.90;;;;;;6243866;23;20461;-66
2023/06/23 04:16:56;;;;;;;8.98;5.65;;;18.20;99.90;;;;;;6243630;23;20024;-66
2023/06/23 04:19:28;;;;;;;9.13;5.53;;;18.20;99.90;;;;;;6242723;23;20020;-66
2023/06/23 04:21:56;;;;;;;13.73;6.10;;;18.40;99.90;;;;;;6245322;22;20461;-65
2023/06/23 04:24:23;;;;;;;10.90;5.20;;;18.30;99.90;;;;;;6245046;23;20024;-66
2023/06/23 04:26:56;;;;;;;10.77;5.63;;;18.30;99.90;;;;;;6243537;23;20458;-66
2023/06/23 04:29:25;;;;;;;9.88;5.90;;;18.40;99.90;;;;;;6243627;23;20031;-64
2023/06/23 04:31:55;;;;;;;11.50;5.25;;;18.40;99.90;;;;;;6244933;23;20461;-65
2023/06/23 04:34:22;;;;;;;8.65;5.13;;;18.50;99.90;;;;;;6245192;23;20078;-66
2023/06/23 04:36:55;;;;;;;11.07;5.75;;;18.60;99.90;;;;;;6244980;23;20047;-66
2023/06/23 04:39:29;;;;;;;10.10;5.50;;;18.50;99.90;;;;;;6243561;23;20020;-66
2023/06/23 04:42:03;;;;;;;9.02;6.03;;;18.50;99.90;;;;;;6243751;23;20469;-65
2023/06/23 04:44:33;;;;;;;14.60;6.80;;;18.50;99.90;;;;;;6243413;23;20035;-65
2023/06/23 04:47:03;;;;;;;16.08;7.00;;;18.50;99.90;;;;;;6245155;23;20085;-65
2023/06/23 04:49:34;;;;;;;12.48;6.70;;;18.50;99.90;;;;;;6243100;23;20484;-66
2023/06/23 04:52:03;;;;;;;;;;;18.50;99.90;;;;;;6246465;23;20445;-65
2023/06/23 04:54:40;;;;;;;11.63;6.03;;;18.50;99.90;;;;;;6242665;23;19915;-65
2023/06/23 04:57:14;;;;;;;9.43;6.30;;;18.50;99.90;;;;;;6245466;23;20039;-65
2023/06/23 04:59:43;;;;;;;13.75;6.80;;;18.40;99.90;;;;;;6244220;23;20028;-65
2023/06/23 05:02:13;;;;;;;10.88;6.53;;;18.30;99.90;;;;;;6245444;22;20342;-65
2023/06/23 05:04:42;;;;;;;10.83;6.50;;;18.30;99.90;;;;;;6244633;23;20027;-65
2023/06/23 05:07:12;;;;;;;9.20;7.13;;;18.30;99.90;;;;;;6241637;23;20476;-65
2023/06/23 05:09:41;;;;;;;10.60;6.20;;;18.30;99.90;;;;;;6245150;23;20020;-65
2023/06/23 05:12:12;;;;;;;11.25;6.80;;;18.30;99.90;;;;;;6245485;23;20315;-65
2023/06/23 05:14:41;;;;;;;7.95;6.00;;;18.30;99.90;;;;;;6242884;23;20028;-65
2023/06/23 05:17:10;;;;;;;9.32;6.65;;;18.40;99.90;;;;;;6245001;23;20024;-65
2023/06/23 05:19:39;;;;;;;10.75;6.82;;;18.50;99.90;;;;;;6243306;23;20020;-65
2023/06/23 05:22:08;;;;;;;8.23;5.88;;;18.50;99.90;;;;;;6242757;23;20082;-65
2023/06/23 05:24:38;;;;;;;8.05;5.85;;;18.60;99.90;;;;;;6243412;23;20349;-66
2023/06/23 05:27:08;;;;;;;10.40;6.32;;;18.50;99.90;;;;;;6244859;23;20335;-66
2023/06/23 05:29:40;;;;;;;11.13;6.10;;;18.60;99.90;;;;;;6242621;23;20024;-65
2023/06/23 05:32:10;;;;;;;11.57;6.45;;;18.50;99.90;;;;;;6245235;23;20085;-66
2023/06/23 05:34:37;;;;;;;8.13;5.30;;;18.50;99.90;;;;;;6243009;23;20131;-66
2023/06/23 05:37:07;;;;;;;11.93;6.45;;;18.50;99.90;;;;;;6244468;22;20028;-65
2023/06/23 05:39:36;;;;;;;11.65;6.55;;;18.50;99.90;;;;;;6244620;23;20024;-65
2023/06/23 05:42:03;;;;;;;9.75;6.68;;;18.40;99.90;;;;;;6243868;23;20024;-64
2023/06/23 05:44:30;;;;;;;14.15;6.88;;;18.40;99.90;;;;;;6244797;23;20023;-65
2023/06/23 05:47:01;;;;;;;11.20;6.97;;;18.40;99.90;;;;;;6242944;23;20476;-66
2023/06/23 05:49:31;;;;;;;10.38;6.32;;;18.40;99.90;;;;;;6244336;23;20016;-65
2023/06/23 05:52:01;;;;;;;12.40;6.63;;;18.40;99.90;;;;;;6245169;23;20020;-65
2023/06/23 05:54:31;;;;;;;10.40;6.60;;;18.40;99.90;;;;;;6242553;23;20082;-65
2023/06/23 05:57:01;;;;;;;9.40;6.03;;;18.40;99.90;;;;;;6244170;22;20020;-64
2023/06/23 05:59:36;;;;;;;12.90;7.23;;;18.70;99.90;;;;;;6242547;23;20023;-66
2023/06/23 06:02:06;;;;;;;11.25;6.57;;;19.00;99.90;;;;;;6243186;23;20251;-65
2023/06/23 06:04:36;;;;;;;12.57;6.30;;;19.20;99.90;;;;;;6243601;23;20043;-66
2023/06/23 06:07:04;;;;;;;18.33;6.85;;;19.50;99.90;;;;;;6243386;23;20054;-65
2023/06/23 06:09:33;;;;;;;11.07;6.93;;;19.70;99.90;;;;;;6242939;23;20024;-66
2023/06/23 06:12:00;;;;;;;13.63;5.80;;;20.00;99.90;;;;;;6243432;23;20024;-66
2023/06/23 06:14:29;;;;;;;8.13;5.88;;;20.00;99.90;;;;;;6242622;23;20031;-66
2023/06/23 06:16:57;;;;;;;9.65;5.82;;;20.40;99.90;;;;;;6245092;23;20100;-65
2023/06/23 06:19:28;;;;;;;7.90;6.15;;;20.70;99.90;;;;;;6243793;23;20066;-65
2023/06/23 06:21:57;;;;;;;8.18;6.18;;;21.10;99.90;;;;;;6242982;23;20054;-65
2023/06/23 06:24:25;;;;;;;9.23;4.78;;;21.40;99.90;;;;;;6241993;23;20488;-65
2023/06/23 06:26:56;;;;;;;9.02;6.00;;;21.70;99.90;;;;;;6244383;23;20358;-65
2023/06/23 06:29:23;;;;;;;;;;;21.80;99.90;;;;;;6245428;23;20027;-65
2023/06/23 06:31:52;;;;;;;8.90;5.50;;;22.00;99.90;;;;;;6243803;23;19926;-66
2023/06/23 06:34:20;;;;;;;5.85;4.75;;;22.10;99.90;;;;;;6245220;23;20027;-65
2023/06/23 06:36:50;;;;;;;11.00;5.55;;;22.40;99.90;;;;;;6242930;23;20342;-65
2023/06/23 06:39:17;;;;;;;10.70;5.53;;;22.80;99.90;;;;;;6243029;23;20103;-66
2023/06/23 06:41:45;;;;;;;7.70;4.45;;;23.00;99.90;;;;;;6242767;23;20020;-65
2023/06/23 06:44:12;;;;;;;6.90;4.10;;;23.30;99.90;;;;;;6242767;23;20024;-64
2023/06/23 06:46:43;;;;;;;7.28;4.63;;;23.50;99.90;;;;;;6243420;23;20504;-64
2023/06/23 06:49:10;;;;;;;;;;;23.80;99.90;;;;;;6245061;23;20047;-65
2023/06/23 06:51:40;;;;;;;6.93;4.07;;;24.00;99.90;;;;;;6242655;23;19920;-64
2023/06/23 06:54:09;;;;;;;5.97;3.38;;;24.20;99.90;;;;;;6242113;23;20028;-65
2023/06/23 06:56:36;;;;;;;6.75;4.10;;;24.30;99.90;;;;;;6242631;23;20102;-65
2023/06/23 06:59:03;;;;;;;10.02;4.15;;;24.40;99.90;;;;;;6242367;23;20066;-64
2023/06/23 07:01:30;;;;;;;11.07;3.50;;;24.70;99.90;;;;;;6243806;23;20027;-65
2023/06/23 07:03:58;;;;;;;6.85;4.05;;;25.00;99.90;;;;;;6242534;23;20024;-64
2023/06/23 07:06:27;;;;;;;8.05;3.63;;;25.20;99.90;;;;;;6242004;23;20363;-66
2023/06/23 07:08:54;;;;;;;20.47;4.80;;;25.50;99.90;;;;;;6242593;23;20054;-66
2023/06/23 07:11:22;;;;;;;13.73;3.70;;;25.70;99.90;;;;;;6244579;23;20031;-66
2023/06/23 07:13:49;;;;;;;20.10;5.00;;;25.90;99.90;;;;;;6241815;23;20024;-65
2023/06/23 07:16:16;;;;;;;5.47;2.72;;;26.20;99.90;;;;;;6242550;23;20031;-65
2023/06/23 07:18:43;;;;;;;4.50;3.17;;;26.20;98.80;;;;;;6244511;23;20020;-66
2023/06/23 07:21:10;;;;;;;6.10;3.15;;;26.50;98.00;;;;;;6243741;23;20086;-65
2023/06/23 07:23:38;;;;;;;16.63;4.40;;;26.70;97.60;;;;;;6242290;23;20028;-65
2023/06/23 07:26:05;;;;;;;6.28;2.70;;;26.90;97.00;;;;;;6242532;23;20413;-65
2023/06/23 07:28:33;;;;;;;13.45;2.72;;;27.20;96.40;;;;;;6243610;23;20027;-65
2023/06/23 07:31:00;;;;;;;7.70;2.88;;;27.50;95.30;;;;;;6244079;23;20021;-65
2023/06/23 07:33:27;;;;;;;3.70;2.25;;;27.70;95.10;;;;;;6244485;23;20392;-65
2023/06/23 07:35:54;;;;;;;4.10;2.63;;;27.80;94.20;;;;;;6243834;23;20020;-66
2023/06/23 07:38:21;;;;;;;5.93;2.40;;;28.10;93.80;;;;;;6245402;23;20031;-66
2023/06/23 07:40:48;;;;;;;5.75;2.60;;;28.10;92.80;;;;;;6245992;23;20341;-66
2023/06/23 07:43:15;;;;;;;5.45;2.30;;;28.20;92.60;;;;;;6243798;23;20028;-66
2023/06/23 07:45:43;;;;;;;4.63;2.63;;;28.40;92.00;;;;;;6244715;23;20031;-66
2023/06/23 07:48:10;;;;;;;4.97;2.58;;;28.50;91.30;;;;;;6244194;23;20024;-66
2023/06/23 07:50:37;;;;;;;4.55;2.13;;;28.80;91.40;;;;;;6245095;23;20070;-65
2023/06/23 07:53:04;;;;;;;8.10;2.28;;;29.00;91.30;;;;;;6244109;23;20020;-66
2023/06/23 07:55:31;;;;;;;4.68;2.50;;;29.20;91.30;;;;;;6246037;23;20024;-66
2023/06/23 07:57:58;;;;;;;4.47;2.25;;;29.50;91.00;;;;;;6245687;23;20357;-66
2023/06/23 08:00:25;;;;;;;3.60;2.30;;;29.50;90.70;;;;;;6244008;23;20024;-66
2023/06/23 08:02:53;;;;;;;3.17;2.20;;;29.80;90.80;;;;;;6243499;23;20024;-65
2023/06/23 08:05:20;;;;;;;6.32;2.30;;;30.00;90.20;;;;;;6244056;23;20028;-65
2023/06/23 08:07:48;;;;;;;6.07;2.30;;;30.10;90.00;;;;;;6246258;22;20020;-65
2023/06/23 08:10:15;;;;;;;5.90;2.72;;;30.10;89.70;;;;;;6245126;23;20020;-66
2023/06/23 08:12:42;;;;;;;3.97;2.40;;;30.10;89.40;;;;;;6246022;23;20418;-65
2023/06/23 08:15:10;;;;;;;4.97;2.40;;;30.30;90.10;;;;;;6245622;23;20024;-65
2023/06/23 08:17:37;;;;;;;3.50;2.35;;;30.50;89.60;;;;;;6243785;23;20473;-64
2023/06/23 08:20:06;;;;;;;3.35;2.20;;;30.50;89.90;;;;;;6243624;23;20027;-65
2023/06/23 08:22:33;;;;;;;;;;;30.70;88.20;;;;;;6246489;23;20335;-65
2023/06/23 08:25:00;;;;;;;3.22;2.03;;;30.70;86.20;;;;;;6244963;23;19916;-65
2023/06/23 08:27:27;;;;;;;4.13;2.40;;;30.70;88.70;;;;;;6246395;23;20020;-65
2023/06/23 08:29:54;;;;;;;3.97;2.15;;;30.70;88.70;;;;;;6243660;23;20039;-66
2023/06/23 08:32:21;;;;;;;3.88;2.50;;;31.00;88.30;;;;;;6243655;23;20020;-66
2023/06/23 08:34:48;;;;;;;7.75;2.17;;;30.60;86.70;;;;;;6243361;23;20051;-66
2023/06/23 08:37:17;;;;;;;6.82;2.80;;;30.90;86.80;;;;;;6246081;23;20024;-66
2023/06/23 08:39:44;;;;;;;5.00;2.70;;;31.10;87.70;;;;;;6244303;23;20028;-66
2023/06/23 08:42:13;;;;;;;3.42;2.53;;;31.20;88.00;;;;;;6243555;23;20020;-65
2023/06/23 08:44:42;;;;;;;2.90;1.98;;;31.30;86.90;;;;;;6243915;23;20024;-65
2023/06/23 08:47:12;;;;;;;3.42;2.15;;;31.30;85.80;;;;;;6244613;23;20082;-66
2023/06/23 08:49:41;;;;;;;4.55;2.75;;;31.40;84.10;;;;;;6245403;23;20028;-66
2023/06/23 08:52:09;;;;;;;5.25;2.53;;;31.20;83.90;;;;;;6242917;23;20024;-66
2023/06/23 08:54:37;;;;;;;6.05;2.33;;;31.40;84.40;;;;;;6242449;23;20024;-66
2023/06/23 08:57:06;;;;;;;8.13;2.13;;;31.70;84.00;;;;;;6242314;23;20043;-66
2023/06/23 08:59:33;;;;;;;3.45;2.20;;;32.10;84.10;;;;;;6242820;23;20052;-66
2023/06/23 09:02:00;;;;;;;5.30;2.50;;;32.10;83.50;;;;;;6244860;23;20042;-65
2023/06/23 09:04:27;;;;;;;3.05;2.33;;;31.70;83.30;;;;;;6243008;23;20078;-66
2023/06/23 09:06:54;;;;;;;3.75;2.20;;;31.90;84.20;;;;;;6242271;23;20458;-65
2023/06/23 09:09:21;;;;;;;6.85;2.50;;;32.20;84.50;;;;;;6245368;23;20031;-65
2023/06/23 09:11:49;;;;;;;4.55;2.20;;;32.00;84.60;;;;;;6243506;23;20020;-65
2023/06/23 09:14:16;;;;;;;4.60;2.22;;;32.20;84.80;;;;;;6242603;23;20036;-66
2023/06/23 09:16:44;;;;;;;3.20;2.35;;;31.80;85.00;;;;;;6244676;23;20339;-66
2023/06/23 09:19:12;;;;;;;5.22;2.42;;;32.00;84.70;;;;;;6245074;23;20074;-66
2023/06/23 09:21:42;;;;;;;4.97;2.10;;;32.10;84.40;;;;;;6244129;23;20016;-65
2023/06/23 09:24:09;;;;;;;8.75;2.88;;;32.20;83.00;;;;;;6244822;23;20024;-65
2023/06/23 09:26:45;;;;;;;9.85;2.58;;;32.10;84.10;;;;;;6244709;22;20035;-66
2023/06/23 09:29:18;;;;;;;7.35;2.25;;;31.80;83.60;;;;;;6244838;22;20076;-66
2023/06/23 09:31:47;;;;;;;7.43;2.70;;;31.90;83.20;;;;;;6243665;23;20024;-65
2023/06/23 09:34:21;;;;;;;;;;;31.80;83.90;;;;;;6243708;23;20108;-66
2023/06/23 09:36:48;;;;;;;3.28;2.28;;;32.10;82.90;;;;;;6243819;23;19915;-66
2023/06/23 09:39:16;;;;;;;3.08;2.13;;;31.70;82.40;;;;;;6243521;23;20098;-67
2023/06/23 09:41:47;;;;;;;2.90;1.85;;;31.80;82.00;;;;;;6243056;23;20028;-66
2023/06/23 09:44:16;;;;;;;4.35;2.50;;;31.90;81.50;;;;;;6243928;23;20074;-66
2023/06/23 09:46:43;;;;;;;3.60;2.28;;;32.00;81.90;;;;;;6244989;23;20465;-66
2023/06/23 09:49:10;;;;;;;6.78;2.25;;;31.80;82.50;;;;;;6245052;23;20086;-66
2023/06/23 09:51:38;;;;;;;3.85;2.13;;;32.10;82.00;;;;;;6244911;23;20074;-67
2023/06/23 09:54:05;;;;;;;5.38;2.50;;;32.30;81.50;;;;;;6241976;23;20099;-67
2023/06/23 09:56:32;;;;;;;4.35;2.83;;;32.20;81.90;;;;;;6243793;23;20020;-66
2023/06/23 09:58:59;;;;;;;4.15;2.40;;;32.30;82.00;;;;;;6245208;23;20020;-66
2023/06/23 10:01:28;;;;;;;4.60;2.88;;;32.10;81.50;;;;;;6244751;23;20020;-67
2023/06/23 10:03:56;;;;;;;6.03;2.30;;;32.20;81.80;;;;;;6244715;23;20079;-66
2023/06/23 10:06:28;;;;;;;6.70;2.58;;;32.30;82.40;;;;;;6245177;23;20028;-67
2023/06/23 10:08:56;;;;;;;4.28;2.83;;;32.20;81.20;;;;;;6245500;23;20327;-66
2023/06/23 10:11:32;;;;;;;12.68;3.65;;;31.90;82.60;;;;;;6242655;23;20392;-66
2023/06/23 10:14:00;;;;;;;6.78;3.30;;;32.40;83.10;;;;;;6244513;23;20099;-66
2023/06/23 10:16:30;;;;;;;5.00;3.25;;;32.60;82.30;;;;;;6243729;22;20066;-67
2023/06/23 10:18:57;;;;;;;5.45;2.80;;;33.00;81.70;;;;;;6245039;22;20028;-66
2023/06/23 10:21:24;;;;;;;6.75;3.05;;;33.50;80.70;;;;;;6243311;23;20020;-67
2023/06/23 10:23:54;;;;;;;5.35;2.80;;;33.60;79.60;;;;;;6242859;23;20078;-67
2023/06/23 10:26:23;;;;;;;3.35;2.75;;;33.80;80.20;;;;;;6245042;23;20028;-66
2023/06/23 10:28:50;;;;;;;;;;;33.80;79.10;;;;;;6244909;23;20020;-66
2023/06/23 10:31:18;;;;;;;3.72;2.85;;;32.60;77.80;;;;;;6242147;23;20387;-66
2023/06/23 10:33:47;;;;;;;3.65;2.20;;;32.70;79.50;;;;;;6244780;23;20466;-66
2023/06/23 10:36:18;;;;;;;4.30;2.50;;;33.20;79.90;;;;;;6244600;22;20024;-66
2023/06/23 10:38:47;;;;;;;4.32;3.13;;;33.10;78.30;;;;;;6243676;23;20024;-65
2023/06/23 10:41:14;;;;;;;;;;;33.20;79.30;;;;;;6243254;23;20016;-66
2023/06/23 10:43:46;;;;;;;4.75;3.20;;;32.40;80.60;;;;;;6242919;23;19915;-65
2023/06/23 10:46:14;;;;;;;4.75;3.00;;;32.10;81.40;;;;;;6241631;23;20335;-66
2023/06/23 10:48:41;;;;;;;6.65;3.15;;;32.60;80.60;;;;;;6242456;23;20028;-66
2023/06/23 10:51:10;;;;;;;4.75;3.30;;;32.90;80.20;;;;;;6244949;23;20458;-65
2023/06/23 10:53:46;;;;;;;4.72;2.92;;;32.40;80.30;;;;;;6243974;23;20035;-67
2023/06/23 10:56:31;;;;;;;4.05;3.10;;;32.30;81.30;;;;;;6242730;23;20086;-66
2023/06/23 10:58:57;;;;;;;4.63;3.05;;;32.90;79.70;;;;;;6242089;23;20074;-66
2023/06/23 11:01:26;;;;;;;7.05;3.40;;;33.10;80.10;;;;;;6242882;23;20024;-66
2023/06/23 11:03:53;;;;;;;5.00;3.22;;;33.40;80.20;;;;;;6237248;23;20078;-66
2023/06/23 11:06:29;;;;;;;5.13;3.10;;;33.10;80.50;;;;;;6243218;23;20025;-66
2023/06/23 11:08:57;;;;;;;5.05;3.17;;;32.80;80.80;;;;;;6241634;23;20020;-66
2023/06/23 11:11:32;;;;;;;4.87;3.63;;;33.20;80.10;;;;;;6242560;23;20020;-67
2023/06/23 11:13:59;;;;;;;6.53;3.60;;;33.20;80.00;;;;;;6245394;23;20101;-66
2023/06/23 11:16:34;;;;;;;5.90;3.35;;;33.20;80.90;;;;;;6244196;23;20021;-66
2023/06/23 11:19:02;;;;;;;6.78;4.00;;;33.40;81.10;;;;;;6245366;23;20505;-66
2023/06/23 11:21:38;;;;;;;5.13;3.05;;;33.20;80.70;;;;;;6243228;23;20088;-67
2023/06/23 11:24:15;;;;;;;7.95;3.58;;;33.20;80.10;;;;;;6246183;23;20081;-67
2023/06/23 11:26:51;;;;;;;5.75;4.18;;;33.20;80.60;;;;;;6243484;23;20035;-66
2023/06/23 11:29:21;;;;;;;4.93;3.78;;;33.20;81.00;;;;;;6244232;23;20030;-66
2023/06/23 11:32:19;;;;;;;6.28;3.60;;;33.50;80.50;;;;;;6245649;23;20392;-67
2023/06/23 11:34:53;;;;;;;7.28;4.00;;;33.60;80.40;;;;;;6243358;23;20055;-66
2023/06/23 11:37:25;;;;;;;5.03;3.47;;;33.70;80.30;;;;;;6245527;23;20073;-67
2023/06/23 11:39:54;;;;;;;5.82;3.60;;;33.80;80.20;;;;;;6243664;23;20069;-66
2023/06/23 11:42:21;;;;;;;5.75;3.78;;;33.90;79.40;;;;;;6243019;23;20050;-67
2023/06/23 11:44:48;;;;;;;4.53;3.67;;;34.00;79.20;;;;;;6243632;23;20484;-67
2023/06/23 11:47:16;;;;;;;7.75;3.97;;;34.10;79.50;;;;;;6243724;23;20024;-67
2023/06/23 11:49:43;;;;;;;6.53;4.15;;;33.90;78.80;;;;;;6244561;23;20028;-66
2023/06/23 11:52:12;;;;;;;7.40;3.92;;;34.20;78.50;;;;;;6245847;23;20376;-66
2023/06/23 11:54:41;;;;;;;7.45;4.10;;;34.30;78.20;;;;;;6243468;23;20024;-66
2023/06/23 11:57:08;;;;;;;;;;;34.30;77.80;;;;;;6244927;23;20063;-65
2023/06/23 11:59:36;;;;;;;5.22;3.50;;;34.20;77.30;;;;;;6245501;23;20042;-66
2023/06/23 12:02:03;;;;;;;6.30;4.22;;;33.70;77.20;;;;;;6245174;23;20047;-66
2023/06/23 12:04:31;;;;;;;4.30;3.42;;;33.40;77.70;;;;;;6245086;23;20028;-67
2023/06/23 12:06:59;;;;;;;6.05;2.90;;;33.00;77.90;;;;;;6245525;23;20032;-64
2023/06/23 12:09:26;;;;;;;5.28;3.67;;;33.20;77.70;;;;;;6242378;23;20020;-66
2023/06/23 12:11:55;;;;;;;4.50;3.05;;;33.40;77.20;;;;;;6245803;23;20020;-66
2023/06/23 12:14:28;;;;;;;5.28;3.00;;;33.50;76.80;;;;;;6243407;23;20031;-66
2023/06/23 12:17:06;;;;;;;4.47;2.53;;;33.70;74.00;;;;;;6244868;23;20035;-66
2023/06/23 12:19:33;;;;;;;3.95;2.40;;;34.00;74.10;;;;;;6243209;23;20031;-66
2023/06/23 12:22:00;;;;;;;4.70;2.50;;;34.00;74.70;;;;;;6243552;23;20027;-66
2023/06/23 12:24:29;;;;;;;5.63;2.60;;;33.90;73.60;;;;;;6242803;23;20074;-66
2023/06/23 12:26:58;;;;;;;4.15;2.70;;;33.70;73.00;;;;;;6245599;23;20388;-67
2023/06/23 12:29:25;;;;;;;5.47;2.33;;;33.20;73.10;;;;;;6243923;23;20023;-67
2023/06/23 12:31:57;;;;;;;4.13;2.80;;;33.40;73.00;;;;;;6243224;23;20393;-66
2023/06/23 12:34:32;;;;;;;4.97;2.53;;;33.50;73.60;;;;;;6245256;23;20024;-66
2023/06/23 12:37:06;;;;;;;4.20;2.45;;;33.90;73.50;;;;;;6245468;23;20055;-66
2023/06/23 12:39:33;;;;;;;4.60;2.53;;;33.70;71.00;;;;;;6243667;23;20484;-66
2023/06/23 12:42:02;;;;;;;4.65;1.88;;;33.70;71.30;;;;;;6244992;23;20487;-66
2023/06/23 12:44:31;;;;;;;;;;;33.50;68.70;;;;;;6245281;23;20023;-66
2023/06/23 12:46:58;;;;;;;3.83;1.98;;;33.30;66.90;;;;;;6245624;23;19923;-67
2023/06/23 12:49:31;;;;;;;2.92;1.70;;;33.50;67.70;;;;;;6243473;23;20026;-66
2023/06/23 12:51:58;;;;;;;2.95;1.75;;;33.60;65.90;;;;;;6245355;23;20032;-65
2023/06/23 12:54:27;;;;;;;3.25;1.77;;;33.90;64.80;;;;;;6244594;23;20458;-65
2023/06/23 12:56:57;;;;;;;5.87;1.97;;;34.00;64.80;;;;;;6245850;23;20331;-66
2023/06/23 12:59:28;;;;;;;3.33;1.73;;;33.80;66.10;;;;;;6243633;23;20527;-65